Time;durP1;ratioP1;P1;durP2;ratioP2;P2;SDS_P1;SDS_P2;PMS_P1;PMS_P2;Temp;Humidity;BMP_temperature;BMP_pressure;BME280_temperature;BME280_humidity;BME280_pressure;Samples;Min_cycle;Max_cycle;Signal;HPM_P1;HPM_P2
2022/10/06 00:01:07;;;;;;;6.63;3.15;;;16.90;99.90;;;;;;7397811;19;20151;-82
2022/10/06 00:03:33;;;;;;;5.88;3.50;;;17.00;99.90;;;;;;7396702;19;20150;-84
2022/10/06 00:06:30;;;;;;;6.93;3.65;;;16.90;99.90;;;;;;7400470;19;20494;-82
2022/10/06 00:08:56;;;;;;;6.80;3.47;;;16.90;99.90;;;;;;7398023;19;20852;-81
2022/10/06 00:11:22;;;;;;;5.72;3.25;;;16.80;99.90;;;;;;7396264;19;20142;-82
2022/10/06 00:13:48;;;;;;;5.68;2.90;;;16.70;99.90;;;;;;7395653;19;20161;-82
2022/10/06 00:16:20;;;;;;;4.78;3.33;;;16.80;99.90;;;;;;7399466;19;20637;-83
2022/10/06 00:18:46;;;;;;;4.93;3.20;;;16.70;99.90;;;;;;7397635;19;20154;-83
2022/10/06 00:21:14;;;;;;;7.07;3.45;;;16.70;99.90;;;;;;7396314;19;20150;-82
2022/10/06 00:23:39;;;;;;;4.63;2.97;;;16.70;99.90;;;;;;7397761;19;20126;-82
2022/10/06 00:26:10;;;;;;;5.13;3.30;;;16.60;99.90;;;;;;7394087;19;20328;-82
2022/10/06 00:28:36;;;;;;;6.32;3.60;;;16.60;99.90;;;;;;7398810;19;20150;-82
2022/10/06 00:31:02;;;;;;;5.55;2.42;;;16.60;99.90;;;;;;7397461;19;20701;-82
2022/10/06 00:33:27;;;;;;;4.60;2.70;;;16.70;99.90;;;;;;7396758;19;20622;-82
2022/10/06 00:35:57;;;;;;;5.40;2.30;;;16.60;99.90;;;;;;7398995;19;20127;-83
2022/10/06 00:38:24;;;;;;;3.08;1.90;;;16.60;99.90;;;;;;7397586;19;20127;-82
2022/10/06 00:40:50;;;;;;;2.72;1.20;;;16.50;99.90;;;;;;7398368;19;20142;-82
2022/10/06 00:43:43;;;;;;;2.83;1.67;;;16.40;99.90;;;;;;7395057;19;20147;-82
2022/10/06 00:46:25;;;;;;;4.47;1.85;;;16.50;99.90;;;;;;7399243;19;20755;-82
2022/10/06 00:48:59;;;;;;;2.28;1.60;;;16.60;99.90;;;;;;7397851;19;20150;-81
2022/10/06 00:51:26;;;;;;;2.22;1.27;;;16.60;99.90;;;;;;7397043;19;20131;-82
2022/10/06 00:53:52;;;;;;;3.78;2.75;;;16.60;99.90;;;;;;7395670;19;20131;-81
2022/10/06 00:56:18;;;;;;;5.82;2.60;;;17.00;99.90;;;;;;7399048;19;20213;-82
2022/10/06 00:58:45;;;;;;;5.00;2.45;;;16.70;99.90;;;;;;7395916;19;20138;-82
2022/10/06 01:01:11;;;;;;;3.78;2.38;;;16.70;99.90;;;;;;7397620;19;20891;-82
2022/10/06 01:03:54;;;;;;;2.65;1.77;;;16.60;99.90;;;;;;7396831;19;20142;-83
2022/10/06 01:06:20;;;;;;;3.58;1.45;;;16.40;99.90;;;;;;7394703;19;20154;-83
2022/10/06 01:08:47;;;;;;;2.67;1.90;;;16.40;99.90;;;;;;7396190;19;20215;-82
2022/10/06 01:11:13;;;;;;;2.47;1.55;;;16.40;99.90;;;;;;7393072;19;20153;-83
2022/10/06 01:13:42;;;;;;;4.82;1.52;;;16.40;99.90;;;;;;7394701;19;20139;-83
2022/10/06 01:16:16;;;;;;;2.58;1.63;;;16.40;99.90;;;;;;7395478;19;20469;-83
2022/10/06 01:18:45;;;;;;;1.80;1.50;;;16.30;99.90;;;;;;7396956;19;20596;-83
2022/10/06 01:21:24;;;;;;;3.05;1.50;;;16.30;99.90;;;;;;7394197;19;20163;-82
2022/10/06 01:23:51;;;;;;;4.70;2.15;;;16.30;99.90;;;;;;7400331;19;20142;-83
2022/10/06 01:26:20;;;;;;;2.50;1.60;;;16.50;99.90;;;;;;7405345;19;20237;-83
2022/10/06 01:28:47;;;;;;;2.40;1.60;;;16.50;99.90;;;;;;7409679;19;20205;-83
2022/10/06 01:31:13;;;;;;;3.30;1.50;;;16.30;99.90;;;;;;7410627;19;20142;-83
2022/10/06 01:33:38;;;;;;;2.03;1.10;;;16.20;99.90;;;;;;7410169;19;20478;-83
2022/10/06 01:36:04;;;;;;;4.45;1.92;;;16.20;99.90;;;;;;7410201;19;20190;-82
2022/10/06 01:38:30;;;;;;;2.53;1.95;;;16.30;99.90;;;;;;7408646;19;20167;-82
2022/10/06 01:40:56;;;;;;;3.20;2.47;;;16.50;99.90;;;;;;7411630;19;20135;-82
2022/10/06 01:43:23;;;;;;;4.65;2.92;;;16.60;99.90;;;;;;7407946;19;20139;-81
2022/10/06 01:45:56;;;;;;;6.95;2.92;;;16.60;99.90;;;;;;7410982;19;20226;-81
2022/10/06 01:48:22;;;;;;;5.57;2.70;;;16.60;99.90;;;;;;7410030;19;20147;-82
2022/10/06 01:50:48;;;;;;;4.32;2.35;;;16.60;99.90;;;;;;7408626;19;20150;-82
2022/10/06 01:53:13;;;;;;;6.65;2.72;;;16.50;99.90;;;;;;7409439;19;20487;-82
2022/10/06 01:55:40;;;;;;;4.07;2.75;;;16.50;99.90;;;;;;7410399;19;20130;-82
2022/10/06 01:58:06;;;;;;;5.05;3.10;;;16.30;99.90;;;;;;7410756;19;20146;-82
2022/10/06 02:00:32;;;;;;;5.65;2.75;;;16.20;99.90;;;;;;7410256;19;20162;-83
2022/10/06 02:02:58;;;;;;;5.68;2.60;;;16.10;99.90;;;;;;7408544;19;20126;-83
2022/10/06 02:05:23;;;;;;;2.92;2.00;;;16.00;99.90;;;;;;7410319;19;20793;-83
2022/10/06 02:07:49;;;;;;;3.80;2.45;;;16.50;99.90;;;;;;7407171;19;20147;-83
2022/10/06 02:10:15;;;;;;;2.83;1.90;;;15.90;99.90;;;;;;7405879;19;20133;-83
2022/10/06 02:12:41;;;;;;;3.45;1.88;;;16.00;99.90;;;;;;7408527;19;20592;-83
2022/10/06 02:15:09;;;;;;;3.20;1.75;;;16.00;99.90;;;;;;7407433;19;20193;-84
2022/10/06 02:17:36;;;;;;;3.72;1.52;;;16.00;99.90;;;;;;7407424;19;20534;-82
2022/10/06 02:20:04;;;;;;;1.73;1.50;;;16.10;99.90;;;;;;7408234;19;20242;-83
2022/10/06 02:22:30;;;;;;;4.07;1.70;;;16.00;99.90;;;;;;7405554;19;20157;-84
2022/10/06 02:24:56;;;;;;;4.40;1.52;;;16.10;99.90;;;;;;7408289;19;20237;-83
2022/10/06 02:27:22;;;;;;;3.15;1.70;;;16.10;99.90;;;;;;7407180;19;20159;-83
2022/10/06 02:29:49;;;;;;;2.97;1.65;;;16.10;99.90;;;;;;7407296;19;20639;-84
2022/10/06 02:32:14;;;;;;;2.40;1.85;;;16.30;99.90;;;;;;7409920;19;20647;-84
2022/10/06 02:34:40;;;;;;;1.63;1.40;;;16.30;99.90;;;;;;7406572;19;20135;-85
2022/10/06 02:37:06;;;;;;;2.92;1.65;;;16.30;99.90;;;;;;7400031;19;20146;-83
2022/10/06 02:39:32;;;;;;;3.05;1.88;;;16.30;99.90;;;;;;7399858;19;20530;-82
2022/10/06 02:41:57;;;;;;;3.08;1.50;;;16.20;99.90;;;;;;7400193;19;20139;-82
2022/10/06 02:44:24;;;;;;;3.30;1.27;;;16.50;99.90;;;;;;7399196;19;20149;-83
2022/10/06 02:46:51;;;;;;;2.15;1.35;;;16.30;99.90;;;;;;7399119;19;20135;-83
2022/10/06 02:49:16;;;;;;;2.85;1.77;;;16.20;99.90;;;;;;7401976;19;20139;-83
2022/10/06 02:51:42;;;;;;;3.70;1.60;;;16.10;99.90;;;;;;7399284;19;20135;-83
2022/10/06 02:54:08;;;;;;;1.88;1.45;;;16.00;99.90;;;;;;7402209;19;20134;-83
2022/10/06 02:56:34;;;;;;;1.80;1.40;;;16.20;99.90;;;;;;7399443;19;20174;-82
2022/10/06 02:59:00;;;;;;;4.38;1.52;;;16.10;99.90;;;;;;7397840;19;20150;-83
2022/10/06 03:01:27;;;;;;;3.13;1.77;;;16.20;99.90;;;;;;7399407;19;20209;-82
2022/10/06 03:03:53;;;;;;;3.47;1.80;;;16.20;99.90;;;;;;7398993;19;20218;-83
2022/10/06 03:06:26;;;;;;;7.60;2.08;;;16.20;99.90;;;;;;7398426;19;20150;-84
2022/10/06 03:08:54;;;;;;;3.03;1.88;;;16.10;99.90;;;;;;7397010;19;20147;-82
2022/10/06 03:11:23;;;;;;;2.85;2.17;;;16.20;99.90;;;;;;7398017;19;20161;-83
2022/10/06 03:13:51;;;;;;;4.22;2.25;;;16.10;99.90;;;;;;7395678;19;20146;-83
2022/10/06 03:16:32;;;;;;;6.22;2.38;;;16.00;99.90;;;;;;7397231;19;20130;-83
2022/10/06 03:18:59;;;;;;;3.17;2.00;;;15.50;99.90;;;;;;7399410;19;20639;-82
2022/10/06 03:21:28;;;;;;;6.05;1.95;;;15.60;99.90;;;;;;7397839;19;20206;-82
2022/10/06 03:23:55;;;;;;;5.38;2.35;;;15.60;99.90;;;;;;7397230;19;20127;-82
2022/10/06 03:26:26;;;;;;;4.68;2.13;;;16.00;99.90;;;;;;7398258;19;20147;-81
2022/10/06 03:28:53;;;;;;;2.38;1.80;;;15.90;99.90;;;;;;7398007;19;20130;-81
2022/10/06 03:31:18;;;;;;;3.05;2.45;;;16.00;99.90;;;;;;7399545;19;20493;-82
2022/10/06 03:33:44;;;;;;;3.92;2.17;;;15.90;99.90;;;;;;7397454;19;20143;-83
2022/10/06 03:36:12;;;;;;;2.85;2.13;;;15.80;99.90;;;;;;7398052;19;20158;-82
2022/10/06 03:38:38;;;;;;;3.10;1.88;;;15.80;99.90;;;;;;7399967;19;20178;-82
2022/10/06 03:41:12;;;;;;;4.63;2.35;;;15.70;99.90;;;;;;7398047;19;20127;-82
2022/10/06 03:43:40;;;;;;;4.22;2.67;;;15.80;99.90;;;;;;7401420;19;20141;-82
2022/10/06 03:46:07;;;;;;;6.38;2.55;;;15.80;99.90;;;;;;7398670;19;20154;-82
2022/10/06 03:48:34;;;;;;;3.00;2.28;;;15.80;99.90;;;;;;7398095;19;20147;-82
2022/10/06 03:51:02;;;;;;;5.00;2.58;;;15.90;99.90;;;;;;7399845;19;20138;-82
2022/10/06 03:53:29;;;;;;;2.92;2.00;;;15.70;99.90;;;;;;7397568;19;20166;-83
2022/10/06 03:56:04;;;;;;;4.57;1.73;;;15.80;99.90;;;;;;7399185;19;20246;-82
2022/10/06 03:58:32;;;;;;;2.50;1.80;;;15.80;99.90;;;;;;7396747;19;20162;-83
2022/10/06 04:01:06;;;;;;;3.92;2.60;;;15.90;99.90;;;;;;7398018;19;20151;-82
2022/10/06 04:03:32;;;;;;;4.20;2.40;;;16.00;99.90;;;;;;7393614;19;20134;-83
2022/10/06 04:06:01;;;;;;;4.75;2.63;;;16.50;99.90;;;;;;7396572;19;20223;-83
2022/10/06 04:08:28;;;;;;;5.57;2.60;;;15.90;99.90;;;;;;7397652;19;20201;-83
2022/10/06 04:10:54;;;;;;;5.63;2.90;;;15.60;99.90;;;;;;7397734;19;20142;-84
2022/10/06 04:13:21;;;;;;;5.18;2.50;;;15.50;99.90;;;;;;7396485;19;20457;-83
2022/10/06 04:15:47;;;;;;;5.28;2.17;;;15.50;99.90;;;;;;7397666;19;20134;-83
2022/10/06 04:18:14;;;;;;;3.15;1.83;;;15.50;99.90;;;;;;7395980;19;20604;-84
2022/10/06 04:20:40;;;;;;;2.13;1.70;;;15.60;99.90;;;;;;7395578;19;20202;-82
2022/10/06 04:23:06;;;;;;;3.75;1.80;;;15.70;99.90;;;;;;7397658;19;20276;-84
2022/10/06 04:25:33;;;;;;;3.47;1.90;;;15.80;99.90;;;;;;7394878;19;20162;-83
2022/10/06 04:27:59;;;;;;;3.35;2.08;;;15.90;99.90;;;;;;7396980;19;20188;-84
2022/10/06 04:30:25;;;;;;;3.13;2.33;;;15.90;99.90;;;;;;7395355;19;20130;-80
2022/10/06 04:32:52;;;;;;;3.30;2.25;;;16.00;99.90;;;;;;7397048;19;20202;-80
2022/10/06 04:35:18;;;;;;;3.83;2.50;;;16.10;99.90;;;;;;7396709;19;20209;-79
2022/10/06 04:37:45;;;;;;;6.30;2.47;;;16.00;99.90;;;;;;7397463;19;20152;-79
2022/10/06 04:40:12;;;;;;;4.03;2.50;;;15.80;99.90;;;;;;7396792;19;20243;-79
2022/10/06 04:42:39;;;;;;;3.60;2.40;;;15.80;99.90;;;;;;7395612;19;20498;-80
2022/10/06 04:45:07;;;;;;;5.15;2.05;;;15.70;99.90;;;;;;7397816;19;20166;-81
2022/10/06 04:47:33;;;;;;;4.47;2.25;;;15.50;99.90;;;;;;7395879;19;20479;-80
2022/10/06 04:49:59;;;;;;;5.50;2.20;;;15.60;99.90;;;;;;7394896;19;20135;-80
2022/10/06 04:52:25;;;;;;;5.40;2.97;;;15.70;99.90;;;;;;7397231;19;20149;-80
2022/10/06 04:54:51;;;;;;;9.30;2.88;;;15.70;99.90;;;;;;7396147;19;20576;-80
2022/10/06 04:57:16;;;;;;;5.28;2.70;;;15.60;99.90;;;;;;7398164;19;20141;-79
2022/10/06 05:02:27;;;;;;;3.88;2.00;;;15.80;99.90;;;;;;7395620;19;20134;-82
2022/10/06 05:04:53;;;;;;;5.05;1.60;;;15.70;99.90;;;;;;7396790;19;20146;-81
2022/10/06 05:07:19;;;;;;;3.13;2.08;;;15.70;99.90;;;;;;7399679;19;20234;-83
2022/10/06 05:09:45;;;;;;;3.00;1.92;;;15.90;99.90;;;;;;7398740;19;20135;-84
2022/10/06 05:12:11;;;;;;;4.63;2.03;;;16.00;99.90;;;;;;7391776;19;20135;-83
2022/10/06 05:14:37;;;;;;;4.28;2.25;;;16.00;99.90;;;;;;7390983;19;20151;-82
2022/10/06 05:17:03;;;;;;;5.22;2.42;;;16.00;99.90;;;;;;7389184;19;20150;-79
2022/10/06 05:19:28;;;;;;;4.70;2.90;;;16.00;99.90;;;;;;7389166;19;20144;-79
2022/10/06 05:21:54;;;;;;;5.20;2.97;;;16.00;99.90;;;;;;7389546;19;20194;-79
2022/10/06 05:24:21;;;;;;;6.07;3.15;;;16.10;99.90;;;;;;7388855;19;20161;-78
2022/10/06 05:26:48;;;;;;;3.65;2.33;;;15.90;99.90;;;;;;7391104;19;20164;-80
2022/10/06 05:29:14;;;;;;;3.83;2.10;;;16.10;99.90;;;;;;7389135;19;20670;-80
2022/10/06 05:31:42;;;;;;;2.42;1.92;;;15.90;99.90;;;;;;7390675;19;20152;-81
2022/10/06 05:34:08;;;;;;;3.47;2.40;;;16.10;99.90;;;;;;7390473;19;20141;-78
2022/10/06 05:36:33;;;;;;;4.20;2.30;;;16.00;99.90;;;;;;7387999;19;20210;-81
2022/10/06 05:39:00;;;;;;;6.53;2.33;;;16.00;99.90;;;;;;7387931;19;20131;-81
2022/10/06 05:41:28;;;;;;;6.38;2.50;;;16.10;99.90;;;;;;7387929;19;20209;-81
2022/10/06 05:43:54;;;;;;;4.13;2.25;;;16.30;99.90;;;;;;7391284;19;20138;-81
2022/10/06 05:46:23;;;;;;;5.55;2.47;;;16.20;99.90;;;;;;7393548;19;20602;-81
2022/10/06 05:48:55;;;;;;;3.63;2.13;;;16.10;99.90;;;;;;7390568;19;20158;-83
2022/10/06 05:51:23;;;;;;;5.10;2.08;;;16.00;99.90;;;;;;7392617;19;20122;-82
2022/10/06 05:53:49;;;;;;;5.28;2.28;;;16.00;99.90;;;;;;7392512;19;20486;-82
2022/10/06 05:56:23;;;;;;;3.00;2.10;;;15.90;99.90;;;;;;7397507;19;20147;-85
2022/10/06 05:58:52;;;;;;;3.35;2.53;;;16.00;99.90;;;;;;7394250;19;20478;-82
2022/10/06 06:01:27;;;;;;;2.85;1.70;;;16.10;99.90;;;;;;7391527;19;20142;-79
2022/10/06 06:04:01;;;;;;;3.33;2.10;;;16.10;99.90;;;;;;7395228;19;20628;-79
2022/10/06 06:06:28;;;;;;;4.57;2.20;;;16.30;99.90;;;;;;7392560;19;20136;-78
2022/10/06 06:08:59;;;;;;;6.47;2.47;;;16.30;99.90;;;;;;7391450;19;20178;-80
2022/10/06 06:11:30;;;;;;;3.83;2.58;;;16.30;99.90;;;;;;7396663;19;20139;-80
2022/10/06 06:14:07;;;;;;;5.93;3.00;;;16.30;99.90;;;;;;7400283;19;20261;-80
2022/10/06 06:16:35;;;;;;;8.07;3.80;;;16.30;99.90;;;;;;7397211;19;20178;-80
2022/10/06 06:19:01;;;;;;;7.20;3.38;;;16.40;99.90;;;;;;7399355;19;20154;-77
2022/10/06 06:21:28;;;;;;;4.95;3.30;;;16.20;99.90;;;;;;7401651;19;20644;-78
2022/10/06 06:23:53;;;;;;;8.43;5.63;;;16.20;99.90;;;;;;7401027;19;20623;-80
2022/10/06 06:26:30;;;;;;;3.55;2.65;;;16.20;99.90;;;;;;7400570;19;20151;-79
2022/10/06 06:29:05;;;;;;;5.03;3.13;;;16.30;99.90;;;;;;7401350;19;20150;-81
2022/10/06 06:31:36;;;;;;;3.67;2.17;;;16.30;99.90;;;;;;7409312;19;20154;-78
2022/10/06 06:34:05;;;;;;;4.72;2.00;;;16.40;99.90;;;;;;7399545;19;20150;-80
2022/10/06 06:36:34;;;;;;;10.95;2.90;;;16.50;99.90;;;;;;7404311;19;20135;-79
2022/10/06 06:39:05;;;;;;;8.65;3.40;;;16.60;99.90;;;;;;7397938;19;20504;-78
2022/10/06 06:41:32;;;;;;;9.90;3.47;;;16.60;99.90;;;;;;7399448;19;20146;-77
2022/10/06 06:43:59;;;;;;;6.40;3.53;;;16.50;99.90;;;;;;7400193;19;20661;-83
2022/10/06 06:46:30;;;;;;;6.93;3.15;;;16.20;99.90;;;;;;7400347;19;20165;-83
2022/10/06 06:49:00;;;;;;;6.40;3.78;;;16.20;99.90;;;;;;7400818;19;20782;-81
2022/10/06 06:51:26;;;;;;;8.48;3.40;;;16.30;99.90;;;;;;7400065;19;20142;-81
2022/10/06 06:53:52;;;;;;;6.47;3.42;;;16.60;99.90;;;;;;7400774;19;20190;-81
2022/10/06 06:56:22;;;;;;;5.72;3.42;;;16.50;99.90;;;;;;7402248;19;20798;-82
2022/10/06 06:58:49;;;;;;;8.10;4.13;;;16.50;99.90;;;;;;7396712;19;20408;-81
2022/10/06 07:01:19;;;;;;;14.25;4.53;;;16.70;99.90;;;;;;7397651;19;20139;-80
2022/10/06 07:03:51;;;;;;;7.05;3.53;;;16.50;99.90;;;;;;7399170;19;20242;-80
2022/10/06 07:06:17;;;;;;;5.18;3.47;;;16.60;99.90;;;;;;7402828;19;20131;-81
2022/10/06 07:08:45;;;;;;;5.38;3.50;;;16.50;99.90;;;;;;7399826;19;20159;-80
2022/10/06 07:11:20;;;;;;;6.97;3.75;;;16.50;99.90;;;;;;7402121;19;20140;-80
2022/10/06 07:13:49;;;;;;;7.63;3.60;;;16.50;99.90;;;;;;7399483;19;20148;-79
2022/10/06 07:25:11;;;;;;;6.78;3.20;;;16.30;99.90;;;;;;7400191;19;20146;-79
2022/10/06 07:27:51;;;;;;;8.25;3.85;;;16.10;99.90;;;;;;7398320;19;20131;-80
2022/10/06 07:30:23;;;;;;;5.35;3.55;;;16.30;99.90;;;;;;7400079;19;20134;-81
2022/10/06 07:32:50;;;;;;;5.20;3.00;;;16.40;99.90;;;;;;7398941;19;20147;-80
2022/10/06 07:35:20;;;;;;;4.60;3.00;;;16.50;99.90;;;;;;7399954;19;20206;-80
2022/10/06 07:37:47;;;;;;;7.00;3.42;;;16.60;99.90;;;;;;7398492;19;20150;-79
2022/10/06 07:40:16;;;;;;;6.70;3.00;;;16.60;99.90;;;;;;7399776;19;20164;-79
2022/10/06 07:42:50;;;;;;;4.03;2.22;;;16.70;99.90;;;;;;7396080;19;20403;-80
2022/10/06 07:45:37;;;;;;;3.22;1.73;;;16.90;99.90;;;;;;7409315;19;20130;-81
2022/10/06 07:48:09;;;;;;;5.28;2.28;;;17.00;99.90;;;;;;7398393;19;20122;-78
2022/10/06 07:50:37;;;;;;;3.75;2.15;;;16.90;99.90;;;;;;7400616;19;20137;-82
2022/10/06 07:53:07;;;;;;;6.88;4.10;;;16.90;99.90;;;;;;7400154;19;20206;-79
2022/10/06 07:55:38;;;;;;;3.10;1.77;;;16.90;99.90;;;;;;7397554;19;20214;-81
2022/10/06 07:58:16;;;;;;;5.00;1.60;;;17.00;99.90;;;;;;7397347;19;20238;-80
2022/10/06 08:00:43;;;;;;;3.55;1.60;;;17.00;99.90;;;;;;7396583;19;20135;-81
2022/10/06 08:03:11;;;;;;;3.53;1.60;;;17.30;99.90;;;;;;7396468;19;20190;-80
2022/10/06 08:05:38;;;;;;;3.35;1.90;;;17.30;99.90;;;;;;7395718;19;20130;-82
2022/10/06 08:08:04;;;;;;;3.45;1.70;;;17.30;99.90;;;;;;7394762;19;20415;-83
2022/10/06 08:10:30;;;;;;;2.10;1.45;;;17.40;99.90;;;;;;7396259;19;20159;-82
2022/10/06 08:12:56;;;;;;;1.65;1.20;;;17.60;99.90;;;;;;7398167;19;20659;-83
2022/10/06 08:15:22;;;;;;;4.07;1.30;;;17.60;99.90;;;;;;7398377;19;20127;-80
2022/10/06 08:17:48;;;;;;;2.95;1.10;;;17.40;99.90;;;;;;7396441;19;20650;-82
2022/10/06 08:20:17;;;;;;;2.08;1.02;;;17.50;99.90;;;;;;7394941;19;20154;-81
2022/10/06 08:22:50;;;;;;;1.60;0.95;;;17.40;99.90;;;;;;7393094;19;20134;-81
2022/10/06 08:25:15;;;;;;;2.88;1.00;;;17.40;99.90;;;;;;7397091;19;20157;-81
2022/10/06 08:27:43;;;;;;;2.50;1.40;;;18.00;99.90;;;;;;7398377;19;20138;-85
2022/10/06 08:30:10;;;;;;;2.05;1.38;;;17.30;99.90;;;;;;7396534;19;20162;-83
2022/10/06 08:32:36;;;;;;;6.22;1.38;;;17.40;99.90;;;;;;7394371;19;20160;-85
2022/10/06 08:35:02;;;;;;;3.75;1.02;;;17.50;99.90;;;;;;7395425;19;20146;-84
2022/10/06 08:37:29;;;;;;;2.42;1.10;;;17.40;99.90;;;;;;7396480;19;20147;-82
2022/10/06 08:39:55;;;;;;;2.08;1.23;;;17.50;99.90;;;;;;7394534;19;20138;-84
2022/10/06 08:42:40;;;;;;;4.03;1.42;;;17.50;99.90;;;;;;7401911;19;20158;-84
2022/10/06 08:45:13;;;;;;;3.13;1.08;;;17.60;99.90;;;;;;7396890;19;20175;-84
2022/10/06 08:48:01;;;;;;;5.50;1.42;;;17.40;99.90;;;;;;7396967;19;20150;-86
2022/10/06 08:50:31;;;;;;;2.25;1.30;;;17.50;99.90;;;;;;7394777;19;20154;-86
2022/10/06 08:53:30;;;;;;;3.80;1.30;;;17.50;99.90;;;;;;7409162;19;20139;-87
2022/10/06 08:56:16;;;;;;;4.28;1.33;;;17.60;99.90;;;;;;7399815;19;20137;-85
2022/10/06 08:59:03;;;;;;;4.55;1.10;;;17.60;99.90;;;;;;7397519;19;20145;-87
2022/10/06 09:01:37;;;;;;;3.03;0.88;;;17.70;99.90;;;;;;7395419;19;20153;-87
2022/10/06 09:04:06;;;;;;;5.60;1.10;;;17.70;99.90;;;;;;7396711;19;20131;-86
2022/10/06 09:07:09;;;;;;;2.65;1.27;;;17.70;99.90;;;;;;7397485;19;20130;-85
2022/10/06 09:09:58;;;;;;;6.45;1.30;;;17.70;99.90;;;;;;7395317;19;20138;-84
2022/10/06 09:12:46;;;;;;;2.95;1.20;;;17.60;99.90;;;;;;7398056;19;20201;-85
2022/10/06 09:15:49;;;;;;;6.65;2.03;;;17.60;99.90;;;;;;7396700;19;20146;-87
2022/10/06 09:18:24;;;;;;;2.47;0.90;;;17.50;99.90;;;;;;7393459;19;20166;-85
2022/10/06 09:21:12;;;;;;;1.50;1.00;;;17.60;99.90;;;;;;7395018;19;20142;-85
2022/10/06 09:23:48;;;;;;;3.25;1.15;;;17.60;99.90;;;;;;7396526;19;20158;-86
2022/10/06 09:26:17;;;;;;;4.97;1.10;;;17.80;99.90;;;;;;7393573;19;20149;-85
2022/10/06 09:28:46;;;;;;;4.80;1.00;;;17.90;99.90;;;;;;7395762;19;20190;-86
2022/10/06 09:31:22;;;;;;;2.45;1.40;;;17.60;99.90;;;;;;7396654;19;20939;-86
2022/10/06 09:33:52;;;;;;;3.40;1.00;;;17.60;99.90;;;;;;7397816;19;20611;-84
2022/10/06 09:36:18;;;;;;;2.85;1.10;;;17.70;99.90;;;;;;7397553;19;20209;-86
2022/10/06 09:38:52;;;;;;;0.95;0.65;;;17.90;99.90;;;;;;7396299;19;20663;-84
2022/10/06 09:41:27;;;;;;;2.17;0.90;;;17.90;99.90;;;;;;7397480;19;20122;-86
2022/10/06 09:43:56;;;;;;;1.75;0.88;;;18.00;99.90;;;;;;7396029;19;20137;-84
2022/10/06 09:46:34;;;;;;;3.67;1.05;;;17.90;99.90;;;;;;7403070;19;20584;-84
2022/10/06 09:49:18;;;;;;;1.80;0.90;;;17.80;99.90;;;;;;7404199;19;20130;-85
2022/10/06 09:51:57;;;;;;;2.40;0.90;;;17.80;99.90;;;;;;7402750;19;20247;-81
2022/10/06 09:54:23;;;;;;;2.92;0.93;;;18.00;99.90;;;;;;7403125;19;20146;-80
2022/10/06 09:56:49;;;;;;;1.00;0.70;;;18.00;99.90;;;;;;7402784;19;20639;-81
2022/10/06 09:59:21;;;;;;;1.95;0.90;;;18.20;99.90;;;;;;7400928;19;20131;-81
2022/10/06 10:01:51;;;;;;;2.38;1.00;;;18.10;99.90;;;;;;7398517;19;20162;-83
2022/10/06 10:04:23;;;;;;;3.20;0.98;;;18.40;99.90;;;;;;7400016;19;20143;-84
2022/10/06 10:06:50;;;;;;;2.10;1.00;;;18.20;99.90;;;;;;7403916;19;20134;-81
2022/10/06 10:09:18;;;;;;;2.80;0.90;;;18.40;99.90;;;;;;7401678;19;20173;-84
2022/10/06 10:14:37;;;;;;;2.65;0.90;;;18.30;99.90;;;;;;7402985;19;20143;-81
2022/10/06 10:17:17;;;;;;;4.45;1.60;;;18.10;99.90;;;;;;7401393;19;20170;-82
2022/10/06 10:19:51;;;;;;;2.35;1.10;;;18.10;99.90;;;;;;7402273;19;20131;-82
2022/10/06 10:22:22;;;;;;;4.75;1.38;;;18.00;99.90;;;;;;7402088;19;20505;-81
2022/10/06 10:25:06;;;;;;;3.10;1.10;;;18.10;99.90;;;;;;7401763;19;20153;-79
2022/10/06 10:28:02;;;;;;;2.95;1.02;;;18.10;99.90;;;;;;7402438;19;20203;-82
2022/10/06 10:30:32;;;;;;;1.85;1.10;;;18.10;99.90;;;;;;7401972;19;20487;-83
2022/10/06 10:33:01;;;;;;;1.63;0.90;;;18.00;99.90;;;;;;7401410;19;20135;-81
2022/10/06 10:35:31;;;;;;;4.32;1.02;;;18.00;99.90;;;;;;7401896;19;20138;-81
2022/10/06 10:38:04;;;;;;;0.60;0.60;;;17.80;99.90;;;;;;7403650;19;20139;-79
2022/10/06 10:40:39;;;;;;;5.18;2.92;;;18.10;99.90;;;;;;7399227;19;20470;-79
2022/10/06 10:43:27;;;;;;;3.03;1.05;;;18.10;99.90;;;;;;7397741;19;20142;-78
2022/10/06 10:46:09;;;;;;;2.00;1.10;;;18.20;99.90;;;;;;7398712;19;20583;-79
2022/10/06 10:48:52;;;;;;;2.55;1.00;;;18.30;99.90;;;;;;7393922;19;20387;-79
2022/10/06 10:51:34;;;;;;;2.30;0.85;;;18.20;99.90;;;;;;7398144;19;20158;-78
2022/10/06 10:54:08;;;;;;;4.40;1.25;;;18.10;99.90;;;;;;7397038;19;20134;-79
2022/10/06 10:56:34;;;;;;;4.38;1.50;;;18.10;99.90;;;;;;7398586;19;20198;-78
2022/10/06 10:59:25;;;;;;;2.15;0.98;;;18.30;99.90;;;;;;7395493;19;20161;-82
2022/10/06 11:02:08;;;;;;;2.55;1.02;;;18.30;99.90;;;;;;7397340;19;20619;-80
2022/10/06 11:04:42;;;;;;;2.40;1.30;;;18.30;99.90;;;;;;7397841;19;20150;-81
2022/10/06 11:07:20;;;;;;;3.10;0.88;;;18.20;99.90;;;;;;7400904;19;20122;-81
2022/10/06 11:10:12;;;;;;;3.40;1.52;;;18.20;99.90;;;;;;7399364;19;20590;-83
2022/10/06 11:12:51;;;;;;;3.78;1.00;;;18.20;99.90;;;;;;7396506;19;20217;-82
2022/10/06 11:15:22;;;;;;;5.47;1.75;;;18.10;99.90;;;;;;7399763;19;20214;-82
2022/10/06 11:17:49;;;;;;;4.53;1.75;;;18.20;99.90;;;;;;7398138;19;20383;-82
2022/10/06 11:20:33;;;;;;;2.00;1.00;;;18.00;99.90;;;;;;7396932;19;20173;-81
2022/10/06 11:23:14;;;;;;;1.90;1.00;;;18.30;99.90;;;;;;7396600;19;20139;-84
2022/10/06 11:26:01;;;;;;;5.85;1.10;;;18.40;99.90;;;;;;7397792;19;20154;-82
2022/10/06 11:28:52;;;;;;;2.47;1.10;;;18.60;99.90;;;;;;7394052;19;20145;-79
2022/10/06 11:31:30;;;;;;;4.95;1.00;;;18.60;99.90;;;;;;7398298;19;20142;-79
2022/10/06 11:34:00;;;;;;;2.40;0.88;;;18.60;99.90;;;;;;7398551;19;20468;-80
2022/10/06 11:36:45;;;;;;;2.03;1.02;;;18.50;99.90;;;;;;7394790;19;20146;-80
2022/10/06 11:39:30;;;;;;;2.30;0.80;;;18.50;99.90;;;;;;7396134;19;20134;-80
2022/10/06 11:42:02;;;;;;;2.50;1.00;;;18.40;99.90;;;;;;7396902;19;20130;-81
2022/10/06 11:44:33;;;;;;;2.00;0.82;;;18.40;99.90;;;;;;7397098;19;20131;-81
2022/10/06 11:47:05;;;;;;;3.15;0.95;;;18.40;99.90;;;;;;7396298;19;20162;-80
2022/10/06 11:49:37;;;;;;;3.28;1.75;;;18.50;99.90;;;;;;7399823;19;20127;-80
2022/10/06 11:52:12;;;;;;;2.58;0.90;;;18.70;99.90;;;;;;7396333;19;20142;-80
2022/10/06 11:54:46;;;;;;;3.72;1.00;;;18.90;99.90;;;;;;7398437;19;20126;-80
2022/10/06 11:57:21;;;;;;;1.10;0.80;;;19.10;99.90;;;;;;7398226;19;20151;-82
2022/10/06 12:00:13;;;;;;;1.77;0.88;;;19.10;99.90;;;;;;7398218;19;20838;-81
2022/10/06 12:02:40;;;;;;;2.55;0.90;;;19.20;99.90;;;;;;7395732;19;20139;-81
2022/10/06 12:05:09;;;;;;;4.15;1.10;;;19.40;99.90;;;;;;7397767;19;20171;-82
2022/10/06 12:07:54;;;;;;;4.78;1.17;;;19.20;99.90;;;;;;7396396;19;20127;-80
2022/10/06 12:10:31;;;;;;;4.25;0.95;;;19.40;99.90;;;;;;7397137;19;20135;-79
2022/10/06 12:13:06;;;;;;;1.95;0.85;;;19.40;99.90;;;;;;7397005;19;20126;-81
2022/10/06 12:15:46;;;;;;;2.88;1.13;;;19.30;99.90;;;;;;7395310;19;20150;-79
2022/10/06 12:18:49;;;;;;;4.22;0.90;;;19.30;99.90;;;;;;7391987;19;20635;-80
2022/10/06 12:21:25;;;;;;;4.15;1.20;;;19.40;99.90;;;;;;7393923;19;20139;-81
2022/10/06 12:24:04;;;;;;;3.53;1.00;;;19.40;99.90;;;;;;7392966;19;21247;-82
2022/10/06 12:26:33;;;;;;;4.53;0.85;;;19.30;99.90;;;;;;7398449;19;20218;-81
2022/10/06 12:29:22;;;;;;;2.67;1.20;;;19.30;99.90;;;;;;7395639;19;20163;-81
2022/10/06 12:32:17;;;;;;;1.92;0.75;;;19.30;99.90;;;;;;7395731;19;20163;-81
2022/10/06 12:35:14;;;;;;;1.90;0.90;;;19.20;99.90;;;;;;7395266;19;20592;-81
2022/10/06 12:37:48;;;;;;;5.28;1.08;;;19.20;99.90;;;;;;7394411;19;20146;-80
2022/10/06 12:40:47;;;;;;;4.03;1.10;;;19.10;99.90;;;;;;7393180;19;20463;-80
2022/10/06 12:43:21;;;;;;;3.95;0.85;;;19.00;99.90;;;;;;7394624;19;20596;-79
2022/10/06 12:46:16;;;;;;;4.45;1.00;;;18.90;99.90;;;;;;7396797;19;20134;-81
2022/10/06 12:49:00;;;;;;;5.22;2.42;;;18.90;99.90;;;;;;7395281;19;20134;-82
2022/10/06 12:51:44;;;;;;;2.08;1.20;;;18.90;99.90;;;;;;7393199;19;20211;-80
2022/10/06 12:54:27;;;;;;;2.63;0.90;;;18.80;99.90;;;;;;7395426;19;20631;-80
2022/10/06 12:56:57;;;;;;;3.88;1.20;;;19.00;99.90;;;;;;7395025;19;20208;-81
2022/10/06 12:59:28;;;;;;;4.18;1.25;;;19.10;99.90;;;;;;7395115;19;20218;-82
2022/10/06 13:01:57;;;;;;;2.63;1.10;;;19.00;99.90;;;;;;7394236;19;20127;-81
2022/10/06 13:04:35;;;;;;;3.50;1.05;;;18.90;99.90;;;;;;7394419;19;20162;-81
2022/10/06 13:07:26;;;;;;;4.43;1.20;;;19.00;99.90;;;;;;7393281;19;20151;-80
2022/10/06 13:10:09;;;;;;;1.90;1.08;;;19.10;99.90;;;;;;7395932;19;20135;-81
2022/10/06 13:12:40;;;;;;;3.97;0.95;;;19.00;99.90;;;;;;7397019;19;20126;-84
2022/10/06 13:15:12;;;;;;;3.30;1.17;;;18.90;99.90;;;;;;7396575;19;20161;-81
2022/10/06 13:17:41;;;;;;;3.15;1.02;;;18.80;99.90;;;;;;7395167;19;20611;-81
2022/10/06 13:20:22;;;;;;;2.38;1.05;;;18.90;99.90;;;;;;7394854;19;20135;-80
2022/10/06 13:22:59;;;;;;;4.32;0.85;;;18.90;99.90;;;;;;7395012;19;20138;-81
2022/10/06 13:25:31;;;;;;;4.63;1.42;;;19.00;99.90;;;;;;7394042;19;20149;-81